sensor_id;sensor_type;location;lat;lon;timestamp;pressure;altitude;pressure_sealevel;temperature;humidity
32875;BME280;40468;42.128;24.750;2023-04-09T00:01:04;100077.72;;;7.85;77.62
32875;BME280;40468;42.128;24.750;2023-04-09T00:02:36;100043.00;;;7.60;77.53
32875;BME280;40468;42.128;24.750;2023-04-09T00:04:07;100085.47;;;7.85;77.57
32875;BME280;40468;42.128;24.750;2023-04-09T00:05:40;100097.63;;;7.83;77.72
32875;BME280;40468;42.128;24.750;2023-04-09T00:07:12;100085.56;;;7.82;77.57
32875;BME280;40468;42.128;24.750;2023-04-09T00:08:43;100094.28;;;7.80;77.69
32875;BME280;40468;42.128;24.750;2023-04-09T00:10:15;100073.09;;;7.65;77.68
32875;BME280;40468;42.128;24.750;2023-04-09T00:11:47;100092.81;;;7.71;77.88
32875;BME280;40468;42.128;24.750;2023-04-09T00:13:18;100098.09;;;7.68;77.85
32875;BME280;40468;42.128;24.750;2023-04-09T00:14:52;100098.09;;;7.68;78.20
32875;BME280;40468;42.128;24.750;2023-04-09T00:16:23;100101.56;;;7.67;77.96
32875;BME280;40468;42.128;24.750;2023-04-09T00:17:54;100100.81;;;7.63;78.28
32875;BME280;40468;42.128;24.750;2023-04-09T00:19:25;100100.84;;;7.62;78.15
32875;BME280;40468;42.128;24.750;2023-04-09T00:20:57;100089.75;;;7.57;78.49
32875;BME280;40468;42.128;24.750;2023-04-09T00:22:29;100086.41;;;7.53;78.16
32875;BME280;40468;42.128;24.750;2023-04-09T00:24:01;100108.63;;;7.62;78.30
32875;BME280;40468;42.128;24.750;2023-04-09T00:25:33;100108.72;;;7.59;78.48
32875;BME280;40468;42.128;24.750;2023-04-09T00:27:05;100111.34;;;7.57;78.34
32875;BME280;40468;42.128;24.750;2023-04-09T00:28:37;100103.63;;;7.56;78.40
32875;BME280;40468;42.128;24.750;2023-04-09T00:30:10;100102.78;;;7.55;78.55
32875;BME280;40468;42.128;24.750;2023-04-09T00:31:42;100104.59;;;7.51;78.74
32875;BME280;40468;42.128;24.750;2023-04-09T00:33:14;100108.03;;;7.52;78.50
32875;BME280;40468;42.128;24.750;2023-04-09T00:34:46;100103.78;;;7.49;78.60
32875;BME280;40468;42.128;24.750;2023-04-09T00:36:18;100092.88;;;7.38;78.63
32875;BME280;40468;42.128;24.750;2023-04-09T00:37:50;100106.41;;;7.48;78.80
32875;BME280;40468;42.128;24.750;2023-04-09T00:39:20;100086.03;;;7.36;78.63
32875;BME280;40468;42.128;24.750;2023-04-09T00:40:52;100102.31;;;7.39;78.72
32875;BME280;40468;42.128;24.750;2023-04-09T00:42:24;100120.31;;;7.45;78.53
32875;BME280;40468;42.128;24.750;2023-04-09T00:43:56;100114.41;;;7.40;78.92
32875;BME280;40468;42.128;24.750;2023-04-09T00:45:29;100116.94;;;7.42;79.10
32875;BME280;40468;42.128;24.750;2023-04-09T00:47:01;100121.34;;;7.40;78.99
32875;BME280;40468;42.128;24.750;2023-04-09T00:48:34;100117.94;;;7.38;79.11
32875;BME280;40468;42.128;24.750;2023-04-09T00:50:06;100123.03;;;7.41;79.10
32875;BME280;40468;42.128;24.750;2023-04-09T00:51:38;100119.63;;;7.39;79.06
32875;BME280;40468;42.128;24.750;2023-04-09T00:53:11;100082.31;;;7.13;78.93
32875;BME280;40468;42.128;24.750;2023-04-09T00:54:42;100123.84;;;7.43;79.12
32875;BME280;40468;42.128;24.750;2023-04-09T00:56:15;100123.84;;;7.43;79.09
32875;BME280;40468;42.128;24.750;2023-04-09T00:57:46;100129.91;;;7.42;78.91
32875;BME280;40468;42.128;24.750;2023-04-09T00:59:18;100110.19;;;7.36;78.92
32875;BME280;40468;42.128;24.750;2023-04-09T01:00:52;100118.78;;;7.38;79.09
32875;BME280;40468;42.128;24.750;2023-04-09T01:02:25;100123.13;;;7.36;79.31
32875;BME280;40468;42.128;24.750;2023-04-09T01:03:56;100116.31;;;7.34;79.37
32875;BME280;40468;42.128;24.750;2023-04-09T01:05:35;100113.03;;;7.27;79.31
32875;BME280;40468;42.128;24.750;2023-04-09T01:07:11;100123.28;;;7.32;79.51
32875;BME280;40468;42.128;24.750;2023-04-09T01:08:50;100125.94;;;7.28;79.55
32875;BME280;40468;42.128;24.750;2023-04-09T01:10:32;100104.69;;;7.16;79.40
32875;BME280;40468;42.128;24.750;2023-04-09T01:12:11;100116.59;;;7.23;79.50
32875;BME280;40468;42.128;24.750;2023-04-09T01:13:50;100103.84;;;7.15;79.63
32875;BME280;40468;42.128;24.750;2023-04-09T01:15:25;100118.41;;;7.19;79.83
32875;BME280;40468;42.128;24.750;2023-04-09T01:17:02;100112.59;;;7.11;79.68
32875;BME280;40468;42.128;24.750;2023-04-09T01:18:48;100115.28;;;7.06;79.87
32875;BME280;40468;42.128;24.750;2023-04-09T01:20:26;100120.34;;;7.11;80.05
32875;BME280;40468;42.128;24.750;2023-04-09T01:22:01;100110.09;;;7.06;80.10
32875;BME280;40468;42.128;24.750;2023-04-09T01:23:46;100115.19;;;7.10;80.10
32875;BME280;40468;42.128;24.750;2023-04-09T01:25:29;100111.00;;;7.05;80.13
32875;BME280;40468;42.128;24.750;2023-04-09T01:27:07;100109.34;;;7.03;80.22
32875;BME280;40468;42.128;24.750;2023-04-09T01:28:42;100107.66;;;7.02;80.08
32875;BME280;40468;42.128;24.750;2023-04-09T01:30:16;100111.84;;;7.06;80.31
32875;BME280;40468;42.128;24.750;2023-04-09T01:31:48;100107.72;;;6.99;80.38
32875;BME280;40468;42.128;24.750;2023-04-09T01:33:21;100112.84;;;7.00;80.55
32875;BME280;40468;42.128;24.750;2023-04-09T01:34:53;100122.28;;;7.03;80.65
32875;BME280;40468;42.128;24.750;2023-04-09T01:36:27;100119.78;;;7.00;80.72
32875;BME280;40468;42.128;24.750;2023-04-09T01:38:02;100114.66;;;6.97;80.85
32875;BME280;40468;42.128;24.750;2023-04-09T01:39:35;100114.66;;;6.97;80.93
32875;BME280;40468;42.128;24.750;2023-04-09T01:41:11;100091.72;;;6.83;80.96
32875;BME280;40468;42.128;24.750;2023-04-09T01:42:45;100110.34;;;6.97;80.83
32875;BME280;40468;42.128;24.750;2023-04-09T01:44:18;100119.84;;;6.97;81.10
32875;BME280;40468;42.128;24.750;2023-04-09T01:45:51;100122.50;;;6.95;81.04
32875;BME280;40468;42.128;24.750;2023-04-09T01:47:23;100119.97;;;6.92;81.12
32875;BME280;40468;42.128;24.750;2023-04-09T01:48:55;100124.25;;;6.93;81.22
32875;BME280;40468;42.128;24.750;2023-04-09T01:50:27;100125.94;;;6.94;81.26
32875;BME280;40468;42.128;24.750;2023-04-09T01:51:59;100132.03;;;6.93;81.32
32875;BME280;40468;42.128;24.750;2023-04-09T01:53:32;100124.34;;;6.90;81.31
32875;BME280;40468;42.128;24.750;2023-04-09T01:55:05;100128.59;;;6.93;81.35
32875;BME280;40468;42.128;24.750;2023-04-09T01:56:41;100126.84;;;6.93;81.50
32875;BME280;40468;42.128;24.750;2023-04-09T01:58:13;100097.28;;;6.68;81.34
32875;BME280;40468;42.128;24.750;2023-04-09T01:59:46;100126.00;;;6.93;81.38
32875;BME280;40468;42.128;24.750;2023-04-09T02:01:21;100128.59;;;6.93;81.40
32875;BME280;40468;42.128;24.750;2023-04-09T02:03:00;100123.41;;;6.93;81.40
32875;BME280;40468;42.128;24.750;2023-04-09T02:04:36;100126.84;;;6.93;81.32
32875;BME280;40468;42.128;24.750;2023-04-09T02:06:15;100133.00;;;6.89;81.53
32875;BME280;40468;42.128;24.750;2023-04-09T02:07:49;100121.06;;;6.83;81.49
32875;BME280;40468;42.128;24.750;2023-04-09T02:09:23;100132.13;;;6.89;81.52
32875;BME280;40468;42.128;24.750;2023-04-09T02:10:57;100115.97;;;6.79;81.38
32875;BME280;40468;42.128;24.750;2023-04-09T02:12:31;100127.94;;;6.83;81.39
32875;BME280;40468;42.128;24.750;2023-04-09T02:14:04;100120.41;;;6.74;81.32
32875;BME280;40468;42.128;24.750;2023-04-09T02:15:39;100133.13;;;6.83;81.29
32875;BME280;40468;42.128;24.750;2023-04-09T02:17:12;100120.41;;;6.74;81.38
32875;BME280;40468;42.128;24.750;2023-04-09T02:18:44;100132.41;;;6.78;81.37
32875;BME280;40468;42.128;24.750;2023-04-09T02:20:16;100131.50;;;6.80;81.41
32875;BME280;40468;42.128;24.750;2023-04-09T02:21:47;100143.56;;;6.80;81.47
32875;BME280;40468;42.128;24.750;2023-04-09T02:23:19;100144.47;;;6.79;81.44
32875;BME280;40468;42.128;24.750;2023-04-09T02:24:50;100140.19;;;6.78;81.64
32875;BME280;40468;42.128;24.750;2023-04-09T02:26:22;100100.28;;;6.51;81.59
32875;BME280;40468;42.128;24.750;2023-04-09T02:27:52;100142.84;;;6.75;81.71
32875;BME280;40468;42.128;24.750;2023-04-09T02:29:24;100143.75;;;6.72;81.97
32875;BME280;40468;42.128;24.750;2023-04-09T02:30:57;100135.22;;;6.69;81.90
32875;BME280;40468;42.128;24.750;2023-04-09T02:32:29;100139.53;;;6.68;81.95
32875;BME280;40468;42.128;24.750;2023-04-09T02:34:01;100128.47;;;6.63;82.06
32875;BME280;40468;42.128;24.750;2023-04-09T02:35:33;100133.63;;;6.63;82.02
32875;BME280;40468;42.128;24.750;2023-04-09T02:37:05;100135.38;;;6.63;82.05
32875;BME280;40468;42.128;24.750;2023-04-09T02:38:36;100137.91;;;6.64;82.18
32875;BME280;40468;42.128;24.750;2023-04-09T02:40:09;100137.13;;;6.60;82.25
32875;BME280;40468;42.128;24.750;2023-04-09T02:41:41;100132.91;;;6.56;82.20
32875;BME280;40468;42.128;24.750;2023-04-09T02:43:12;100136.38;;;6.57;82.36
32875;BME280;40468;42.128;24.750;2023-04-09T02:44:44;100142.38;;;6.57;82.46
32875;BME280;40468;42.128;24.750;2023-04-09T02:46:16;100147.56;;;6.57;82.64
32875;BME280;40468;42.128;24.750;2023-04-09T02:47:48;100144.22;;;6.52;82.82
32875;BME280;40468;42.128;24.750;2023-04-09T02:49:18;100137.28;;;6.54;82.81
32875;BME280;40468;42.128;24.750;2023-04-09T02:50:50;100137.28;;;6.54;82.97
32875;BME280;40468;42.128;24.750;2023-04-09T02:52:22;100137.31;;;6.53;82.95
32875;BME280;40468;42.128;24.750;2023-04-09T02:53:55;100142.53;;;6.51;82.89
32875;BME280;40468;42.128;24.750;2023-04-09T02:55:27;100138.16;;;6.53;82.81
32875;BME280;40468;42.128;24.750;2023-04-09T02:56:58;100136.38;;;6.57;83.11
32875;BME280;40468;42.128;24.750;2023-04-09T02:58:30;100135.41;;;6.59;83.13
32875;BME280;40468;42.128;24.750;2023-04-09T03:00:02;100140.59;;;6.59;83.13
32875;BME280;40468;42.128;24.750;2023-04-09T03:01:36;100144.91;;;6.59;82.98
32875;BME280;40468;42.128;24.750;2023-04-09T03:03:08;100139.03;;;6.54;83.15
32875;BME280;40468;42.128;24.750;2023-04-09T03:04:39;100146.72;;;6.57;83.13
32875;BME280;40468;42.128;24.750;2023-04-09T03:06:11;100145.84;;;6.56;82.94
32875;BME280;40468;42.128;24.750;2023-04-09T03:07:43;100138.97;;;6.55;82.91
32875;BME280;40468;42.128;24.750;2023-04-09T03:09:16;100103.31;;;6.31;82.86
32875;BME280;40468;42.128;24.750;2023-04-09T03:10:48;100041.94;;;6.00;82.80
32875;BME280;40468;42.128;24.750;2023-04-09T03:12:20;100137.22;;;6.57;82.85
32875;BME280;40468;42.128;24.750;2023-04-09T03:13:52;100131.19;;;6.57;83.05
32875;BME280;40468;42.128;24.750;2023-04-09T03:15:23;100133.72;;;6.58;82.89
32875;BME280;40468;42.128;24.750;2023-04-09T03:16:57;100138.88;;;6.60;83.00
32875;BME280;40468;42.128;24.750;2023-04-09T03:18:29;100139.78;;;6.57;83.04
32875;BME280;40468;42.128;24.750;2023-04-09T03:20:00;100087.81;;;6.31;83.09
32875;BME280;40468;42.128;24.750;2023-04-09T03:21:31;100138.06;;;6.58;83.07
32875;BME280;40468;42.128;24.750;2023-04-09T03:23:03;100139.75;;;6.59;82.95
32875;BME280;40468;42.128;24.750;2023-04-09T03:24:35;100138.88;;;6.60;82.97
32875;BME280;40468;42.128;24.750;2023-04-09T03:26:07;100144.91;;;6.60;82.99
32875;BME280;40468;42.128;24.750;2023-04-09T03:27:38;100144.00;;;6.61;82.92
32875;BME280;40468;42.128;24.750;2023-04-09T03:29:10;100134.63;;;6.57;83.00
32875;BME280;40468;42.128;24.750;2023-04-09T03:30:40;100138.06;;;6.56;83.05
32875;BME280;40468;42.128;24.750;2023-04-09T03:32:14;100132.03;;;6.57;83.11
32875;BME280;40468;42.128;24.750;2023-04-09T03:33:45;100145.81;;;6.58;83.10
32875;BME280;40468;42.128;24.750;2023-04-09T03:35:17;100144.06;;;6.60;83.11
32875;BME280;40468;42.128;24.750;2023-04-09T03:36:48;100143.16;;;6.61;82.96
32875;BME280;40468;42.128;24.750;2023-04-09T03:38:20;100138.81;;;6.63;83.02
32875;BME280;40468;42.128;24.750;2023-04-09T03:39:52;100141.41;;;6.63;83.18
32875;BME280;40468;42.128;24.750;2023-04-09T03:41:24;100149.09;;;6.66;83.09
32875;BME280;40468;42.128;24.750;2023-04-09T03:42:56;100149.09;;;6.66;82.99
32875;BME280;40468;42.128;24.750;2023-04-09T03:44:28;100135.38;;;6.63;82.98
32875;BME280;40468;42.128;24.750;2023-04-09T03:46:00;100143.00;;;6.67;83.00
32875;BME280;40468;42.128;24.750;2023-04-09T03:47:33;100155.81;;;6.73;82.97
32875;BME280;40468;42.128;24.750;2023-04-09T03:49:05;100153.22;;;6.73;83.02
32875;BME280;40468;42.128;24.750;2023-04-09T03:50:39;100149.81;;;6.71;82.98
32875;BME280;40468;42.128;24.750;2023-04-09T03:52:11;100114.09;;;6.50;82.86
32875;BME280;40468;42.128;24.750;2023-04-09T03:53:43;100154.06;;;6.74;82.79
32875;BME280;40468;42.128;24.750;2023-04-09T03:55:15;100154.06;;;6.74;82.80
32875;BME280;40468;42.128;24.750;2023-04-09T03:56:47;100152.28;;;6.76;82.61
32875;BME280;40468;42.128;24.750;2023-04-09T03:58:17;100154.13;;;6.72;82.62
32875;BME280;40468;42.128;24.750;2023-04-09T03:59:49;100158.47;;;6.70;82.52
32875;BME280;40468;42.128;24.750;2023-04-09T04:01:20;100157.47;;;6.76;82.66
32875;BME280;40468;42.128;24.750;2023-04-09T04:02:53;100168.66;;;6.76;82.62
32875;BME280;40468;42.128;24.750;2023-04-09T04:04:25;100162.66;;;6.76;82.74
32875;BME280;40468;42.128;24.750;2023-04-09T04:05:59;100076.75;;;6.24;82.60
32875;BME280;40468;42.128;24.750;2023-04-09T04:07:31;100133.09;;;6.49;82.78
32875;BME280;40468;42.128;24.750;2023-04-09T04:09:03;100168.75;;;6.73;82.65
32875;BME280;40468;42.128;24.750;2023-04-09T04:10:35;100170.50;;;6.73;82.67
32875;BME280;40468;42.128;24.750;2023-04-09T04:12:07;100167.91;;;6.73;82.63
32875;BME280;40468;42.128;24.750;2023-04-09T04:13:39;100170.44;;;6.74;82.70
32875;BME280;40468;42.128;24.750;2023-04-09T04:15:11;100168.72;;;6.75;82.70
32875;BME280;40468;42.128;24.750;2023-04-09T04:16:41;100172.09;;;6.77;82.73
32875;BME280;40468;42.128;24.750;2023-04-09T04:18:15;100162.66;;;6.74;82.79
32875;BME280;40468;42.128;24.750;2023-04-09T04:19:45;100168.66;;;6.78;82.75
32875;BME280;40468;42.128;24.750;2023-04-09T04:21:17;100166.94;;;6.77;82.67
32875;BME280;40468;42.128;24.750;2023-04-09T04:22:49;100177.22;;;6.80;82.61
32875;BME280;40468;42.128;24.750;2023-04-09T04:24:21;100178.09;;;6.79;82.44
32875;BME280;40468;42.128;24.750;2023-04-09T04:25:53;100177.28;;;6.77;82.49
32875;BME280;40468;42.128;24.750;2023-04-09T04:27:26;100173.00;;;6.76;82.34
32875;BME280;40468;42.128;24.750;2023-04-09T04:28:58;100173.91;;;6.75;82.32
32875;BME280;40468;42.128;24.750;2023-04-09T04:30:30;100178.19;;;6.74;82.48
32875;BME280;40468;42.128;24.750;2023-04-09T04:32:02;100176.50;;;6.75;82.46
32875;BME280;40468;42.128;24.750;2023-04-09T04:33:34;100178.19;;;6.76;82.48
32875;BME280;40468;42.128;24.750;2023-04-09T04:35:07;100176.50;;;6.75;82.56
32875;BME280;40468;42.128;24.750;2023-04-09T04:36:38;100174.75;;;6.74;82.50
32875;BME280;40468;42.128;24.750;2023-04-09T04:38:10;100171.41;;;6.70;82.57
32875;BME280;40468;42.128;24.750;2023-04-09T04:39:42;100185.16;;;6.72;82.59
32875;BME280;40468;42.128;24.750;2023-04-09T04:41:13;100185.97;;;6.74;82.51
32875;BME280;40468;42.128;24.750;2023-04-09T04:42:45;100181.81;;;6.69;82.33
32875;BME280;40468;42.128;24.750;2023-04-09T04:44:16;100180.09;;;6.68;82.37
32875;BME280;40468;42.128;24.750;2023-04-09T04:45:48;100183.50;;;6.70;82.40
32875;BME280;40468;42.128;24.750;2023-04-09T04:47:20;100183.50;;;6.70;82.33
32875;BME280;40468;42.128;24.750;2023-04-09T04:48:53;100186.16;;;6.67;82.55
32875;BME280;40468;42.128;24.750;2023-04-09T04:50:25;100184.47;;;6.66;82.54
32875;BME280;40468;42.128;24.750;2023-04-09T04:51:57;100178.50;;;6.62;82.71
32875;BME280;40468;42.128;24.750;2023-04-09T04:53:29;100176.03;;;6.57;82.75
32875;BME280;40468;42.128;24.750;2023-04-09T04:55:01;100176.78;;;6.63;82.82
32875;BME280;40468;42.128;24.750;2023-04-09T04:56:32;100183.66;;;6.64;82.68
32875;BME280;40468;42.128;24.750;2023-04-09T04:58:04;100165.75;;;6.54;82.68
32875;BME280;40468;42.128;24.750;2023-04-09T04:59:36;100189.66;;;6.66;82.72
32875;BME280;40468;42.128;24.750;2023-04-09T05:01:09;100183.66;;;6.64;82.71
32875;BME280;40468;42.128;24.750;2023-04-09T05:02:40;100184.50;;;6.64;82.68
32875;BME280;40468;42.128;24.750;2023-04-09T05:04:14;100189.66;;;6.66;82.76
32875;BME280;40468;42.128;24.750;2023-04-09T05:05:46;100187.06;;;6.66;82.76
32875;BME280;40468;42.128;24.750;2023-04-09T05:07:17;100194.81;;;6.66;82.97
32875;BME280;40468;42.128;24.750;2023-04-09T05:08:49;100184.53;;;6.63;82.81
32875;BME280;40468;42.128;24.750;2023-04-09T05:10:21;100187.91;;;6.66;82.89
32875;BME280;40468;42.128;24.750;2023-04-09T05:11:53;100179.28;;;6.66;83.11
32875;BME280;40468;42.128;24.750;2023-04-09T05:13:26;100191.34;;;6.67;82.93
32875;BME280;40468;42.128;24.750;2023-04-09T05:14:58;100187.06;;;6.66;83.02
32875;BME280;40468;42.128;24.750;2023-04-09T05:16:30;100181.97;;;6.63;82.92
32875;BME280;40468;42.128;24.750;2023-04-09T05:18:01;100185.34;;;6.65;83.07
32875;BME280;40468;42.128;24.750;2023-04-09T05:19:35;100186.16;;;6.67;82.88
32875;BME280;40468;42.128;24.750;2023-04-09T05:21:07;100180.97;;;6.67;82.93
32875;BME280;40468;42.128;24.750;2023-04-09T05:22:38;100188.56;;;6.74;83.05
32875;BME280;40468;42.128;24.750;2023-04-09T05:24:10;100181.66;;;6.75;83.13
32875;BME280;40468;42.128;24.750;2023-04-09T05:25:42;100183.22;;;6.82;83.10
32875;BME280;40468;42.128;24.750;2023-04-09T05:27:14;100186.56;;;6.86;83.17
32875;BME280;40468;42.128;24.750;2023-04-09T05:28:46;100192.56;;;6.88;83.19
32875;BME280;40468;42.128;24.750;2023-04-09T05:30:18;100177.88;;;6.90;83.03
32875;BME280;40468;42.128;24.750;2023-04-09T05:31:50;100181.28;;;6.90;83.05
32875;BME280;40468;42.128;24.750;2023-04-09T05:33:22;100176.88;;;6.94;83.12
32875;BME280;40468;42.128;24.750;2023-04-09T05:34:55;100187.94;;;7.00;82.91
32875;BME280;40468;42.128;24.750;2023-04-09T05:36:27;100188.75;;;7.02;83.05
32875;BME280;40468;42.128;24.750;2023-04-09T05:37:59;100189.59;;;7.04;82.78
32875;BME280;40468;42.128;24.750;2023-04-09T05:39:31;100194.78;;;7.04;82.69
32875;BME280;40468;42.128;24.750;2023-04-09T05:41:03;100196.50;;;7.04;82.71
32875;BME280;40468;42.128;24.750;2023-04-09T05:42:35;100187.78;;;7.06;82.54
32875;BME280;40468;42.128;24.750;2023-04-09T05:44:07;100190.31;;;7.10;82.42
32875;BME280;40468;42.128;24.750;2023-04-09T05:45:39;100198.00;;;7.13;82.45
32875;BME280;40468;42.128;24.750;2023-04-09T05:47:11;100197.13;;;7.14;82.35
32875;BME280;40468;42.128;24.750;2023-04-09T05:48:41;100193.63;;;7.16;82.32
32875;BME280;40468;42.128;24.750;2023-04-09T05:50:15;100192.63;;;7.20;82.18
32875;BME280;40468;42.128;24.750;2023-04-09T05:51:48;100192.63;;;7.22;82.19
32875;BME280;40468;42.128;24.750;2023-04-09T05:53:21;100203.75;;;7.24;82.19
32875;BME280;40468;42.128;24.750;2023-04-09T05:54:52;100199.41;;;7.26;82.17
32875;BME280;40468;42.128;24.750;2023-04-09T05:56:24;100211.47;;;7.27;81.93
32875;BME280;40468;42.128;24.750;2023-04-09T05:57:57;100211.47;;;7.27;82.05
32875;BME280;40468;42.128;24.750;2023-04-09T05:59:29;100208.03;;;7.26;81.98
32875;BME280;40468;42.128;24.750;2023-04-09T06:01:01;100211.47;;;7.27;81.80
32875;BME280;40468;42.128;24.750;2023-04-09T06:02:32;100208.16;;;7.22;81.73
32875;BME280;40468;42.128;24.750;2023-04-09T06:04:04;100213.25;;;7.25;81.59
32875;BME280;40468;42.128;24.750;2023-04-09T06:05:37;100204.69;;;7.21;81.59
32875;BME280;40468;42.128;24.750;2023-04-09T06:07:09;100203.75;;;7.24;81.61
32875;BME280;40468;42.128;24.750;2023-04-09T06:08:42;100208.09;;;7.23;81.45
32875;BME280;40468;42.128;24.750;2023-04-09T06:10:14;100219.97;;;7.32;81.68
32875;BME280;40468;42.128;24.750;2023-04-09T06:11:45;100216.41;;;7.36;81.76
32875;BME280;40468;42.128;24.750;2023-04-09T06:13:17;100212.88;;;7.40;81.55
32875;BME280;40468;42.128;24.750;2023-04-09T06:14:48;100211.94;;;7.43;81.64
32875;BME280;40468;42.128;24.750;2023-04-09T06:16:20;100210.94;;;7.48;81.27
32875;BME280;40468;42.128;24.750;2023-04-09T06:17:52;100216.91;;;7.50;81.37
32875;BME280;40468;42.128;24.750;2023-04-09T06:19:24;100215.06;;;7.56;81.38
32875;BME280;40468;42.128;24.750;2023-04-09T06:21:02;100206.44;;;7.55;81.32
32875;BME280;40468;42.128;24.750;2023-04-09T06:22:33;100212.22;;;7.65;81.22
32875;BME280;40468;42.128;24.750;2023-04-09T06:24:05;100212.97;;;7.70;81.16
32875;BME280;40468;42.128;24.750;2023-04-09T06:25:37;100201.75;;;7.69;80.69
32875;BME280;40468;42.128;24.750;2023-04-09T06:27:09;100208.50;;;7.75;80.89
32875;BME280;40468;42.128;24.750;2023-04-09T06:28:41;100211.72;;;7.83;80.61
32875;BME280;40468;42.128;24.750;2023-04-09T06:30:13;100213.34;;;7.87;80.51
32875;BME280;40468;42.128;24.750;2023-04-09T06:31:45;100195.38;;;7.81;80.20
32875;BME280;40468;42.128;24.750;2023-04-09T06:33:17;100190.19;;;7.81;79.93
32875;BME280;40468;42.128;24.750;2023-04-09T06:34:48;100205.31;;;7.96;80.02
32875;BME280;40468;42.128;24.750;2023-04-09T06:36:22;100208.56;;;8.03;79.59
32875;BME280;40468;42.128;24.750;2023-04-09T06:37:53;100219.78;;;8.05;79.26
32875;BME280;40468;42.128;24.750;2023-04-09T06:39:25;100207.75;;;8.03;79.22
32875;BME280;40468;42.128;24.750;2023-04-09T06:40:58;100210.16;;;8.09;79.04
32875;BME280;40468;42.128;24.750;2023-04-09T06:42:29;100211.81;;;8.11;78.94
32875;BME280;40468;42.128;24.750;2023-04-09T06:44:01;100201.44;;;8.11;78.89
32875;BME280;40468;42.128;24.750;2023-04-09T06:45:33;100205.69;;;8.14;78.87
32875;BME280;40468;42.128;24.750;2023-04-09T06:47:05;100198.25;;;8.02;78.27
32875;BME280;40468;42.128;24.750;2023-04-09T06:48:38;100216.06;;;8.14;78.28
32875;BME280;40468;42.128;24.750;2023-04-09T06:50:11;100213.41;;;8.15;78.02
32875;BME280;40468;42.128;24.750;2023-04-09T06:51:45;100195.41;;;8.11;77.98
32875;BME280;40468;42.128;24.750;2023-04-09T06:53:16;100213.38;;;8.17;77.88
32875;BME280;40468;42.128;24.750;2023-04-09T06:54:49;100216.75;;;8.20;77.93
32875;BME280;40468;42.128;24.750;2023-04-09T06:56:21;100218.34;;;8.25;77.55
32875;BME280;40468;42.128;24.750;2023-04-09T06:57:53;100223.53;;;8.25;77.15
32875;BME280;40468;42.128;24.750;2023-04-09T06:59:25;100225.25;;;8.26;76.91
32875;BME280;40468;42.128;24.750;2023-04-09T07:00:56;100214.00;;;8.25;76.91
32875;BME280;40468;42.128;24.750;2023-04-09T07:02:28;100225.91;;;8.32;77.02
32875;BME280;40468;42.128;24.750;2023-04-09T07:04:00;100224.03;;;8.37;76.84
32875;BME280;40468;42.128;24.750;2023-04-09T07:05:32;100224.75;;;8.42;76.64
32875;BME280;40468;42.128;24.750;2023-04-09T07:07:05;100225.50;;;8.48;76.59
32875;BME280;40468;42.128;24.750;2023-04-09T07:08:37;100222.97;;;8.45;76.73
32875;BME280;40468;42.128;24.750;2023-04-09T07:10:09;100150.72;;;8.01;76.84
32875;BME280;40468;42.128;24.750;2023-04-09T07:11:41;100230.41;;;8.57;76.43
32875;BME280;40468;42.128;24.750;2023-04-09T07:13:13;100232.91;;;8.60;76.30
32875;BME280;40468;42.128;24.750;2023-04-09T07:14:45;100226.78;;;8.62;76.10
32875;BME280;40468;42.128;24.750;2023-04-09T07:16:17;100226.75;;;8.64;75.93
32875;BME280;40468;42.128;24.750;2023-04-09T07:17:50;100218.84;;;8.67;75.89
32875;BME280;40468;42.128;24.750;2023-04-09T07:19:22;100218.78;;;8.69;75.97
32875;BME280;40468;42.128;24.750;2023-04-09T07:20:54;100225.63;;;8.73;75.76
32875;BME280;40468;42.128;24.750;2023-04-09T07:22:28;100195.50;;;8.67;75.60
32875;BME280;40468;42.128;24.750;2023-04-09T07:24:00;100221.78;;;8.84;75.66
32875;BME280;40468;42.128;24.750;2023-04-09T07:25:32;100226.00;;;8.87;75.49
32875;BME280;40468;42.128;24.750;2023-04-09T07:27:04;100217.19;;;8.93;75.32
32875;BME280;40468;42.128;24.750;2023-04-09T07:28:36;100210.94;;;8.98;74.84
32875;BME280;40468;42.128;24.750;2023-04-09T07:30:09;100167.41;;;8.78;74.64
32875;BME280;40468;42.128;24.750;2023-04-09T07:31:41;100212.56;;;9.02;74.54
32875;BME280;40468;42.128;24.750;2023-04-09T07:33:14;100217.56;;;9.08;74.17
32875;BME280;40468;42.128;24.750;2023-04-09T07:34:46;100213.09;;;9.12;74.41
32875;BME280;40468;42.128;24.750;2023-04-09T07:36:18;100218.81;;;9.23;74.08
32875;BME280;40468;42.128;24.750;2023-04-09T07:37:51;100211.66;;;9.30;74.19
32875;BME280;40468;42.128;24.750;2023-04-09T07:39:23;100212.28;;;9.37;73.72
32875;BME280;40468;42.128;24.750;2023-04-09T07:40:55;100193.00;;;9.44;74.07
32875;BME280;40468;42.128;24.750;2023-04-09T07:42:27;100216.34;;;9.70;74.05
32875;BME280;40468;42.128;24.750;2023-04-09T07:43:59;100207.03;;;9.88;73.06
32875;BME280;40468;42.128;24.750;2023-04-09T07:45:33;100205.06;;;9.95;72.45
32875;BME280;40468;42.128;24.750;2023-04-09T07:47:06;100213.84;;;10.16;72.22
32875;BME280;40468;42.128;24.750;2023-04-09T07:48:38;100205.88;;;10.20;71.64
32875;BME280;40468;42.128;24.750;2023-04-09T07:50:10;100212.34;;;10.34;71.04
32875;BME280;40468;42.128;24.750;2023-04-09T07:51:43;100211.16;;;10.42;71.07
32875;BME280;40468;42.128;24.750;2023-04-09T07:53:16;100218.69;;;10.50;70.52
32875;BME280;40468;42.128;24.750;2023-04-09T07:54:48;100212.56;;;10.51;70.61
32875;BME280;40468;42.128;24.750;2023-04-09T07:56:20;100211.28;;;10.61;70.14
32875;BME280;40468;42.128;24.750;2023-04-09T08:00:00;100213.22;;;10.78;68.83
32875;BME280;40468;42.128;24.750;2023-04-09T08:01:33;100196.88;;;10.75;68.42
32875;BME280;40468;42.128;24.750;2023-04-09T08:03:05;100209.25;;;10.91;68.17
32875;BME280;40468;42.128;24.750;2023-04-09T08:04:37;100215.72;;;11.03;68.05
32875;BME280;40468;42.128;24.750;2023-04-09T08:06:09;100176.97;;;10.94;67.86